sensor_id;sensor_type;location;lat;lon;timestamp;temperature;humidity
41533;DHT22;27262;-35.248;149.138;2023-07-29T00:01:46;16.30;64.30
41533;DHT22;27262;-35.248;149.138;2023-07-29T00:04:16;16.40;64.20
41533;DHT22;27262;-35.248;149.138;2023-07-29T00:06:47;16.40;64.30
41533;DHT22;27262;-35.248;149.138;2023-07-29T00:09:17;16.50;64.60
41533;DHT22;27262;-35.248;149.138;2023-07-29T00:11:48;16.50;64.50
41533;DHT22;27262;-35.248;149.138;2023-07-29T00:14:18;16.60;64.70
41533;DHT22;27262;-35.248;149.138;2023-07-29T00:16:49;16.60;64.70
41533;DHT22;27262;-35.248;149.138;2023-07-29T00:19:19;16.60;64.60
41533;DHT22;27262;-35.248;149.138;2023-07-29T00:21:53;16.70;64.60
41533;DHT22;27262;-35.248;149.138;2023-07-29T00:24:23;16.70;64.60
41533;DHT22;27262;-35.248;149.138;2023-07-29T00:26:54;16.80;64.60
41533;DHT22;27262;-35.248;149.138;2023-07-29T00:29:25;16.80;64.50
41533;DHT22;27262;-35.248;149.138;2023-07-29T00:31:55;16.90;64.50
41533;DHT22;27262;-35.248;149.138;2023-07-29T00:34:25;16.90;64.20
41533;DHT22;27262;-35.248;149.138;2023-07-29T00:36:56;16.90;64.10
41533;DHT22;27262;-35.248;149.138;2023-07-29T00:39:27;17.00;64.10
41533;DHT22;27262;-35.248;149.138;2023-07-29T00:41:57;17.00;64.20
41533;DHT22;27262;-35.248;149.138;2023-07-29T00:44:27;17.00;64.30
41533;DHT22;27262;-35.248;149.138;2023-07-29T00:46:58;17.10;64.90
41533;DHT22;27262;-35.248;149.138;2023-07-29T00:49:29;17.20;65.30
41533;DHT22;27262;-35.248;149.138;2023-07-29T00:52:00;17.20;65.20
41533;DHT22;27262;-35.248;149.138;2023-07-29T00:54:30;17.20;65.20
41533;DHT22;27262;-35.248;149.138;2023-07-29T00:57:00;17.30;65.10
41533;DHT22;27262;-35.248;149.138;2023-07-29T00:59:31;17.30;65.50
41533;DHT22;27262;-35.248;149.138;2023-07-29T01:02:02;17.40;64.60
41533;DHT22;27262;-35.248;149.138;2023-07-29T01:04:32;17.40;64.40
41533;DHT22;27262;-35.248;149.138;2023-07-29T01:15:58;17.50;64.00
41533;DHT22;27262;-35.248;149.138;2023-07-29T01:18:32;17.60;63.90
41533;DHT22;27262;-35.248;149.138;2023-07-29T01:21:08;17.60;63.80
41533;DHT22;27262;-35.248;149.138;2023-07-29T01:23:39;17.60;63.70
41533;DHT22;27262;-35.248;149.138;2023-07-29T01:26:09;17.70;63.70
41533;DHT22;27262;-35.248;149.138;2023-07-29T01:28:40;17.70;63.80
41533;DHT22;27262;-35.248;149.138;2023-07-29T01:31:12;17.70;63.90
41533;DHT22;27262;-35.248;149.138;2023-07-29T01:36:50;17.70;63.50
41533;DHT22;27262;-35.248;149.138;2023-07-29T01:39:22;17.70;63.50
41533;DHT22;27262;-35.248;149.138;2023-07-29T01:41:53;17.70;63.40
41533;DHT22;27262;-35.248;149.138;2023-07-29T01:44:25;17.80;63.30
41533;DHT22;27262;-35.248;149.138;2023-07-29T01:46:56;17.70;63.20
41533;DHT22;27262;-35.248;149.138;2023-07-29T01:49:27;17.70;63.20
41533;DHT22;27262;-35.248;149.138;2023-07-29T01:51:58;17.80;63.20
41533;DHT22;27262;-35.248;149.138;2023-07-29T01:54:29;17.80;63.10
41533;DHT22;27262;-35.248;149.138;2023-07-29T01:56:59;17.80;63.00
41533;DHT22;27262;-35.248;149.138;2023-07-29T01:59:30;17.80;63.00
41533;DHT22;27262;-35.248;149.138;2023-07-29T02:02:00;17.80;63.00
41533;DHT22;27262;-35.248;149.138;2023-07-29T02:04:31;17.80;63.10
41533;DHT22;27262;-35.248;149.138;2023-07-29T02:07:02;17.80;63.20
41533;DHT22;27262;-35.248;149.138;2023-07-29T02:09:32;17.90;63.30
41533;DHT22;27262;-35.248;149.138;2023-07-29T02:12:03;17.90;63.40
41533;DHT22;27262;-35.248;149.138;2023-07-29T02:14:33;17.90;63.40
41533;DHT22;27262;-35.248;149.138;2023-07-29T02:17:04;17.90;63.40
41533;DHT22;27262;-35.248;149.138;2023-07-29T02:19:34;17.90;63.50
41533;DHT22;27262;-35.248;149.138;2023-07-29T02:22:05;17.90;63.40
41533;DHT22;27262;-35.248;149.138;2023-07-29T02:24:35;17.90;63.50
41533;DHT22;27262;-35.248;149.138;2023-07-29T02:27:06;18.00;63.80
41533;DHT22;27262;-35.248;149.138;2023-07-29T02:29:37;18.00;63.80
41533;DHT22;27262;-35.248;149.138;2023-07-29T02:32:07;18.00;63.70
41533;DHT22;27262;-35.248;149.138;2023-07-29T02:34:39;18.00;63.80
41533;DHT22;27262;-35.248;149.138;2023-07-29T02:37:09;18.00;63.90
41533;DHT22;27262;-35.248;149.138;2023-07-29T02:39:40;18.00;63.80
41533;DHT22;27262;-35.248;149.138;2023-07-29T02:42:10;18.10;63.70
41533;DHT22;27262;-35.248;149.138;2023-07-29T02:44:41;18.10;63.60
41533;DHT22;27262;-35.248;149.138;2023-07-29T02:47:11;18.10;63.50
41533;DHT22;27262;-35.248;149.138;2023-07-29T02:49:42;18.10;63.40
41533;DHT22;27262;-35.248;149.138;2023-07-29T02:52:12;18.10;63.30
41533;DHT22;27262;-35.248;149.138;2023-07-29T02:54:43;18.10;63.20
41533;DHT22;27262;-35.248;149.138;2023-07-29T02:57:14;18.10;63.20
41533;DHT22;27262;-35.248;149.138;2023-07-29T02:59:44;18.10;63.20
41533;DHT22;27262;-35.248;149.138;2023-07-29T03:02:15;18.20;63.30
41533;DHT22;27262;-35.248;149.138;2023-07-29T03:04:47;18.20;63.50
41533;DHT22;27262;-35.248;149.138;2023-07-29T03:07:18;18.20;63.60
41533;DHT22;27262;-35.248;149.138;2023-07-29T03:09:50;18.20;63.60
41533;DHT22;27262;-35.248;149.138;2023-07-29T03:12:20;18.20;63.50
41533;DHT22;27262;-35.248;149.138;2023-07-29T03:14:51;18.20;63.50
41533;DHT22;27262;-35.248;149.138;2023-07-29T03:17:21;18.20;63.40
41533;DHT22;27262;-35.248;149.138;2023-07-29T03:19:52;18.20;63.30
41533;DHT22;27262;-35.248;149.138;2023-07-29T03:22:22;18.30;63.40
41533;DHT22;27262;-35.248;149.138;2023-07-29T03:24:54;18.20;63.30
41533;DHT22;27262;-35.248;149.138;2023-07-29T03:27:24;18.20;63.20
41533;DHT22;27262;-35.248;149.138;2023-07-29T03:29:55;18.30;63.20
41533;DHT22;27262;-35.248;149.138;2023-07-29T03:32:25;18.30;63.20
41533;DHT22;27262;-35.248;149.138;2023-07-29T03:34:56;18.30;63.20
41533;DHT22;27262;-35.248;149.138;2023-07-29T03:37:27;18.30;63.20
41533;DHT22;27262;-35.248;149.138;2023-07-29T03:39:57;18.30;63.10
41533;DHT22;27262;-35.248;149.138;2023-07-29T03:42:32;18.30;63.20
41533;DHT22;27262;-35.248;149.138;2023-07-29T03:45:03;18.40;63.30
41533;DHT22;27262;-35.248;149.138;2023-07-29T03:47:33;18.30;63.30
41533;DHT22;27262;-35.248;149.138;2023-07-29T03:50:04;18.40;63.40
41533;DHT22;27262;-35.248;149.138;2023-07-29T03:52:35;18.40;63.40
41533;DHT22;27262;-35.248;149.138;2023-07-29T03:55:05;18.30;63.50
41533;DHT22;27262;-35.248;149.138;2023-07-29T03:57:36;18.40;63.60
41533;DHT22;27262;-35.248;149.138;2023-07-29T04:00:06;18.40;63.70
41533;DHT22;27262;-35.248;149.138;2023-07-29T04:02:38;18.40;63.80
41533;DHT22;27262;-35.248;149.138;2023-07-29T04:05:10;18.40;63.90
41533;DHT22;27262;-35.248;149.138;2023-07-29T04:07:41;18.40;64.70
41533;DHT22;27262;-35.248;149.138;2023-07-29T04:10:12;18.40;64.00
41533;DHT22;27262;-35.248;149.138;2023-07-29T04:12:43;18.40;64.10
41533;DHT22;27262;-35.248;149.138;2023-07-29T04:15:14;18.40;64.20
41533;DHT22;27262;-35.248;149.138;2023-07-29T04:17:44;18.40;64.20
41533;DHT22;27262;-35.248;149.138;2023-07-29T04:20:15;18.40;64.20
41533;DHT22;27262;-35.248;149.138;2023-07-29T04:22:46;18.40;64.20
41533;DHT22;27262;-35.248;149.138;2023-07-29T04:25:16;18.40;64.30
41533;DHT22;27262;-35.248;149.138;2023-07-29T04:27:46;18.40;64.20
41533;DHT22;27262;-35.248;149.138;2023-07-29T04:30:17;18.40;64.20
41533;DHT22;27262;-35.248;149.138;2023-07-29T04:32:47;18.40;64.30
41533;DHT22;27262;-35.248;149.138;2023-07-29T04:35:18;18.40;64.30
41533;DHT22;27262;-35.248;149.138;2023-07-29T04:37:49;18.40;64.30
41533;DHT22;27262;-35.248;149.138;2023-07-29T04:40:19;18.40;64.20
41533;DHT22;27262;-35.248;149.138;2023-07-29T04:42:50;18.40;64.20
41533;DHT22;27262;-35.248;149.138;2023-07-29T04:45:21;18.40;64.10
41533;DHT22;27262;-35.248;149.138;2023-07-29T04:47:52;18.30;64.00
41533;DHT22;27262;-35.248;149.138;2023-07-29T04:50:23;18.30;64.10
41533;DHT22;27262;-35.248;149.138;2023-07-29T04:52:53;18.30;64.00
41533;DHT22;27262;-35.248;149.138;2023-07-29T04:55:23;18.30;64.10
41533;DHT22;27262;-35.248;149.138;2023-07-29T04:57:54;18.30;64.00
41533;DHT22;27262;-35.248;149.138;2023-07-29T05:00:24;18.30;64.10
41533;DHT22;27262;-35.248;149.138;2023-07-29T05:02:55;18.30;64.10
41533;DHT22;27262;-35.248;149.138;2023-07-29T05:05:25;18.30;64.10
41533;DHT22;27262;-35.248;149.138;2023-07-29T05:07:55;18.40;64.10
41533;DHT22;27262;-35.248;149.138;2023-07-29T05:10:26;18.30;64.10
41533;DHT22;27262;-35.248;149.138;2023-07-29T05:12:56;18.30;64.10
41533;DHT22;27262;-35.248;149.138;2023-07-29T05:15:26;18.30;64.20
41533;DHT22;27262;-35.248;149.138;2023-07-29T05:17:57;18.40;64.20
41533;DHT22;27262;-35.248;149.138;2023-07-29T05:20:27;18.40;64.30
41533;DHT22;27262;-35.248;149.138;2023-07-29T05:22:58;18.30;64.20
41533;DHT22;27262;-35.248;149.138;2023-07-29T05:25:28;18.30;64.30
41533;DHT22;27262;-35.248;149.138;2023-07-29T05:27:59;18.30;64.30
41533;DHT22;27262;-35.248;149.138;2023-07-29T05:30:29;18.30;64.30
41533;DHT22;27262;-35.248;149.138;2023-07-29T05:33:07;18.30;64.30
41533;DHT22;27262;-35.248;149.138;2023-07-29T05:35:38;18.30;64.30
41533;DHT22;27262;-35.248;149.138;2023-07-29T05:38:08;18.30;64.30
41533;DHT22;27262;-35.248;149.138;2023-07-29T05:40:42;18.30;64.30
41533;DHT22;27262;-35.248;149.138;2023-07-29T05:43:12;18.40;64.40
41533;DHT22;27262;-35.248;149.138;2023-07-29T05:45:44;18.40;64.40
41533;DHT22;27262;-35.248;149.138;2023-07-29T05:48:14;18.40;64.40
41533;DHT22;27262;-35.248;149.138;2023-07-29T05:50:44;18.40;64.40
41533;DHT22;27262;-35.248;149.138;2023-07-29T05:53:15;18.30;64.40
41533;DHT22;27262;-35.248;149.138;2023-07-29T05:55:45;18.40;64.40
41533;DHT22;27262;-35.248;149.138;2023-07-29T05:58:15;18.40;64.50
41533;DHT22;27262;-35.248;149.138;2023-07-29T06:00:46;18.40;64.50
41533;DHT22;27262;-35.248;149.138;2023-07-29T06:03:17;18.40;64.50
41533;DHT22;27262;-35.248;149.138;2023-07-29T06:05:49;18.40;64.50
41533;DHT22;27262;-35.248;149.138;2023-07-29T06:08:27;18.40;64.50
41533;DHT22;27262;-35.248;149.138;2023-07-29T06:11:04;18.40;64.40
41533;DHT22;27262;-35.248;149.138;2023-07-29T06:13:36;18.40;64.50
41533;DHT22;27262;-35.248;149.138;2023-07-29T06:16:06;18.40;64.40
41533;DHT22;27262;-35.248;149.138;2023-07-29T06:18:37;18.40;64.40
41533;DHT22;27262;-35.248;149.138;2023-07-29T06:21:07;18.40;64.40
41533;DHT22;27262;-35.248;149.138;2023-07-29T06:23:41;18.40;64.30
41533;DHT22;27262;-35.248;149.138;2023-07-29T06:26:11;18.40;64.30
41533;DHT22;27262;-35.248;149.138;2023-07-29T06:28:42;18.40;64.30
41533;DHT22;27262;-35.248;149.138;2023-07-29T06:31:12;18.40;64.30
41533;DHT22;27262;-35.248;149.138;2023-07-29T06:33:43;18.40;64.20
41533;DHT22;27262;-35.248;149.138;2023-07-29T06:36:13;18.40;64.20
41533;DHT22;27262;-35.248;149.138;2023-07-29T06:38:43;18.40;64.10
41533;DHT22;27262;-35.248;149.138;2023-07-29T06:41:14;18.30;64.00
41533;DHT22;27262;-35.248;149.138;2023-07-29T06:43:47;18.40;64.10
41533;DHT22;27262;-35.248;149.138;2023-07-29T06:46:17;18.30;64.00
41533;DHT22;27262;-35.248;149.138;2023-07-29T06:48:48;18.30;64.00
41533;DHT22;27262;-35.248;149.138;2023-07-29T06:51:18;18.40;64.00
41533;DHT22;27262;-35.248;149.138;2023-07-29T06:53:49;18.30;63.90
41533;DHT22;27262;-35.248;149.138;2023-07-29T06:56:19;18.30;63.90
41533;DHT22;27262;-35.248;149.138;2023-07-29T06:58:50;18.40;63.90
41533;DHT22;27262;-35.248;149.138;2023-07-29T07:01:20;18.30;63.90
41533;DHT22;27262;-35.248;149.138;2023-07-29T07:03:50;18.40;63.90
41533;DHT22;27262;-35.248;149.138;2023-07-29T07:06:23;18.30;63.80
41533;DHT22;27262;-35.248;149.138;2023-07-29T07:08:54;18.30;63.80
41533;DHT22;27262;-35.248;149.138;2023-07-29T07:11:24;18.30;63.70
41533;DHT22;27262;-35.248;149.138;2023-07-29T07:13:57;18.30;63.70
41533;DHT22;27262;-35.248;149.138;2023-07-29T07:16:28;18.30;63.80
41533;DHT22;27262;-35.248;149.138;2023-07-29T07:19:02;18.30;63.70
41533;DHT22;27262;-35.248;149.138;2023-07-29T07:21:32;18.30;63.80
41533;DHT22;27262;-35.248;149.138;2023-07-29T07:24:03;18.30;63.70
41533;DHT22;27262;-35.248;149.138;2023-07-29T07:26:34;18.30;63.80
41533;DHT22;27262;-35.248;149.138;2023-07-29T07:29:05;18.30;63.70
41533;DHT22;27262;-35.248;149.138;2023-07-29T07:31:36;18.30;64.10
41533;DHT22;27262;-35.248;149.138;2023-07-29T07:34:06;18.30;63.80
41533;DHT22;27262;-35.248;149.138;2023-07-29T07:36:37;18.30;63.80
41533;DHT22;27262;-35.248;149.138;2023-07-29T07:39:12;18.30;63.90
41533;DHT22;27262;-35.248;149.138;2023-07-29T07:41:42;18.20;63.80
41533;DHT22;27262;-35.248;149.138;2023-07-29T07:44:13;18.30;63.90
41533;DHT22;27262;-35.248;149.138;2023-07-29T07:46:47;18.20;64.60
41533;DHT22;27262;-35.248;149.138;2023-07-29T07:49:17;18.20;63.90
41533;DHT22;27262;-35.248;149.138;2023-07-29T07:51:48;18.20;63.80
41533;DHT22;27262;-35.248;149.138;2023-07-29T07:54:18;18.20;63.80
41533;DHT22;27262;-35.248;149.138;2023-07-29T07:56:49;18.20;63.90
41533;DHT22;27262;-35.248;149.138;2023-07-29T07:59:19;18.20;63.90
41533;DHT22;27262;-35.248;149.138;2023-07-29T08:01:49;18.20;64.00
41533;DHT22;27262;-35.248;149.138;2023-07-29T08:04:21;18.20;64.10
41533;DHT22;27262;-35.248;149.138;2023-07-29T08:06:52;18.20;63.90
41533;DHT22;27262;-35.248;149.138;2023-07-29T08:09:22;18.20;63.90
41533;DHT22;27262;-35.248;149.138;2023-07-29T08:11:52;18.20;64.00
41533;DHT22;27262;-35.248;149.138;2023-07-29T08:14:23;18.20;63.90
41533;DHT22;27262;-35.248;149.138;2023-07-29T08:16:53;18.20;64.80
41533;DHT22;27262;-35.248;149.138;2023-07-29T08:19:23;18.20;63.90
41533;DHT22;27262;-35.248;149.138;2023-07-29T08:21:54;18.20;64.00
41533;DHT22;27262;-35.248;149.138;2023-07-29T08:24:24;18.20;63.90
41533;DHT22;27262;-35.248;149.138;2023-07-29T08:26:55;18.20;64.10
41533;DHT22;27262;-35.248;149.138;2023-07-29T08:29:25;18.20;64.10
41533;DHT22;27262;-35.248;149.138;2023-07-29T08:31:55;18.20;64.40
41533;DHT22;27262;-35.248;149.138;2023-07-29T08:34:26;18.20;64.20
41533;DHT22;27262;-35.248;149.138;2023-07-29T08:36:56;18.30;64.70
41533;DHT22;27262;-35.248;149.138;2023-07-29T08:39:26;18.30;64.50
41533;DHT22;27262;-35.248;149.138;2023-07-29T08:42:11;18.30;64.70
41533;DHT22;27262;-35.248;149.138;2023-07-29T08:44:43;18.30;64.20
41533;DHT22;27262;-35.248;149.138;2023-07-29T08:47:14;18.20;64.70
41533;DHT22;27262;-35.248;149.138;2023-07-29T08:49:46;18.30;64.40
41533;DHT22;27262;-35.248;149.138;2023-07-29T08:52:17;18.30;64.80
41533;DHT22;27262;-35.248;149.138;2023-07-29T08:54:48;18.30;64.60
41533;DHT22;27262;-35.248;149.138;2023-07-29T08:57:20;18.20;64.70
41533;DHT22;27262;-35.248;149.138;2023-07-29T08:59:50;18.30;64.60
41533;DHT22;27262;-35.248;149.138;2023-07-29T09:02:21;18.30;64.80
41533;DHT22;27262;-35.248;149.138;2023-07-29T09:04:51;18.30;65.00
41533;DHT22;27262;-35.248;149.138;2023-07-29T09:07:22;18.30;65.10
41533;DHT22;27262;-35.248;149.138;2023-07-29T09:09:52;18.30;65.20
41533;DHT22;27262;-35.248;149.138;2023-07-29T09:12:23;18.30;65.10
41533;DHT22;27262;-35.248;149.138;2023-07-29T09:14:53;18.40;65.20
41533;DHT22;27262;-35.248;149.138;2023-07-29T09:17:26;18.40;65.20
41533;DHT22;27262;-35.248;149.138;2023-07-29T09:20:01;18.40;65.20
41533;DHT22;27262;-35.248;149.138;2023-07-29T09:22:32;18.40;65.20
41533;DHT22;27262;-35.248;149.138;2023-07-29T09:25:02;18.40;65.40
41533;DHT22;27262;-35.248;149.138;2023-07-29T09:27:32;18.40;65.10
41533;DHT22;27262;-35.248;149.138;2023-07-29T09:30:16;18.40;65.10
41533;DHT22;27262;-35.248;149.138;2023-07-29T09:32:46;18.50;65.00
41533;DHT22;27262;-35.248;149.138;2023-07-29T09:35:17;18.50;64.90
41533;DHT22;27262;-35.248;149.138;2023-07-29T09:37:47;18.50;64.80
41533;DHT22;27262;-35.248;149.138;2023-07-29T09:40:18;18.50;64.80
41533;DHT22;27262;-35.248;149.138;2023-07-29T09:45:25;18.50;64.90
41533;DHT22;27262;-35.248;149.138;2023-07-29T09:47:57;18.50;64.90
41533;DHT22;27262;-35.248;149.138;2023-07-29T09:50:28;18.50;65.00
41533;DHT22;27262;-35.248;149.138;2023-07-29T09:52:59;18.50;65.00
41533;DHT22;27262;-35.248;149.138;2023-07-29T09:55:32;18.50;65.00
41533;DHT22;27262;-35.248;149.138;2023-07-29T09:58:03;18.50;64.90
41533;DHT22;27262;-35.248;149.138;2023-07-29T10:00:39;18.50;64.80
41533;DHT22;27262;-35.248;149.138;2023-07-29T10:03:10;18.60;64.80
41533;DHT22;27262;-35.248;149.138;2023-07-29T10:05:43;18.50;64.60
41533;DHT22;27262;-35.248;149.138;2023-07-29T10:08:24;18.60;64.60
41533;DHT22;27262;-35.248;149.138;2023-07-29T10:11:01;18.50;64.40
41533;DHT22;27262;-35.248;149.138;2023-07-29T10:13:33;18.50;64.30
41533;DHT22;27262;-35.248;149.138;2023-07-29T10:16:04;18.60;64.40
41533;DHT22;27262;-35.248;149.138;2023-07-29T10:18:35;18.50;64.30
41533;DHT22;27262;-35.248;149.138;2023-07-29T10:21:06;18.50;64.20
41533;DHT22;27262;-35.248;149.138;2023-07-29T10:23:40;18.60;64.30
41533;DHT22;27262;-35.248;149.138;2023-07-29T10:26:14;18.60;64.20
41533;DHT22;27262;-35.248;149.138;2023-07-29T10:28:48;18.60;64.30
41533;DHT22;27262;-35.248;149.138;2023-07-29T10:31:22;18.50;64.20
41533;DHT22;27262;-35.248;149.138;2023-07-29T10:33:53;18.50;64.20
41533;DHT22;27262;-35.248;149.138;2023-07-29T10:36:24;18.50;64.20
41533;DHT22;27262;-35.248;149.138;2023-07-29T10:38:55;18.50;64.10
41533;DHT22;27262;-35.248;149.138;2023-07-29T10:42:00;18.50;64.10
41533;DHT22;27262;-35.248;149.138;2023-07-29T10:47:16;18.50;64.10
41533;DHT22;27262;-35.248;149.138;2023-07-29T10:49:55;18.50;64.10
41533;DHT22;27262;-35.248;149.138;2023-07-29T10:52:39;18.50;64.10
41533;DHT22;27262;-35.248;149.138;2023-07-29T10:55:49;18.40;64.00
41533;DHT22;27262;-35.248;149.138;2023-07-29T10:58:21;18.40;64.00
41533;DHT22;27262;-35.248;149.138;2023-07-29T11:00:52;18.40;64.10
41533;DHT22;27262;-35.248;149.138;2023-07-29T11:03:23;18.40;64.10
41533;DHT22;27262;-35.248;149.138;2023-07-29T11:06:04;18.40;64.10
41533;DHT22;27262;-35.248;149.138;2023-07-29T11:08:35;18.40;63.90
41533;DHT22;27262;-35.248;149.138;2023-07-29T11:11:12;18.40;64.00
41533;DHT22;27262;-35.248;149.138;2023-07-29T11:13:43;18.40;64.00
41533;DHT22;27262;-35.248;149.138;2023-07-29T11:16:16;18.30;64.00
41533;DHT22;27262;-35.248;149.138;2023-07-29T11:18:48;18.40;64.00
41533;DHT22;27262;-35.248;149.138;2023-07-29T11:21:20;18.30;64.00
41533;DHT22;27262;-35.248;149.138;2023-07-29T11:23:53;18.30;64.00
41533;DHT22;27262;-35.248;149.138;2023-07-29T11:26:24;18.30;64.10
41533;DHT22;27262;-35.248;149.138;2023-07-29T11:28:55;18.30;64.10
41533;DHT22;27262;-35.248;149.138;2023-07-29T11:31:39;18.30;64.20
41533;DHT22;27262;-35.248;149.138;2023-07-29T11:34:11;18.30;64.10
41533;DHT22;27262;-35.248;149.138;2023-07-29T11:36:48;18.30;64.30
41533;DHT22;27262;-35.248;149.138;2023-07-29T11:39:18;18.30;64.30
41533;DHT22;27262;-35.248;149.138;2023-07-29T11:41:48;18.20;64.30
41533;DHT22;27262;-35.248;149.138;2023-07-29T11:44:19;18.20;64.30
41533;DHT22;27262;-35.248;149.138;2023-07-29T11:46:49;18.20;64.30
41533;DHT22;27262;-35.248;149.138;2023-07-29T11:49:19;18.20;64.30
41533;DHT22;27262;-35.248;149.138;2023-07-29T11:51:50;18.20;64.30
41533;DHT22;27262;-35.248;149.138;2023-07-29T11:54:21;18.20;64.30
41533;DHT22;27262;-35.248;149.138;2023-07-29T11:56:51;18.20;64.40
41533;DHT22;27262;-35.248;149.138;2023-07-29T11:59:22;18.10;64.30
41533;DHT22;27262;-35.248;149.138;2023-07-29T12:01:54;18.10;64.30
41533;DHT22;27262;-35.248;149.138;2023-07-29T12:04:24;18.10;64.40
41533;DHT22;27262;-35.248;149.138;2023-07-29T12:06:55;18.10;64.40
41533;DHT22;27262;-35.248;149.138;2023-07-29T12:09:26;18.10;64.40
41533;DHT22;27262;-35.248;149.138;2023-07-29T12:11:58;18.10;64.40
41533;DHT22;27262;-35.248;149.138;2023-07-29T12:14:29;18.00;64.40
41533;DHT22;27262;-35.248;149.138;2023-07-29T12:17:01;18.00;64.40
41533;DHT22;27262;-35.248;149.138;2023-07-29T12:19:33;18.10;64.50
41533;DHT22;27262;-35.248;149.138;2023-07-29T12:22:06;18.00;64.40
41533;DHT22;27262;-35.248;149.138;2023-07-29T12:24:40;18.00;64.40
41533;DHT22;27262;-35.248;149.138;2023-07-29T12:27:13;18.00;64.40
41533;DHT22;27262;-35.248;149.138;2023-07-29T12:29:45;18.00;64.50
41533;DHT22;27262;-35.248;149.138;2023-07-29T12:32:18;18.00;64.50
41533;DHT22;27262;-35.248;149.138;2023-07-29T12:34:48;18.00;64.50
41533;DHT22;27262;-35.248;149.138;2023-07-29T12:37:19;18.00;64.50
41533;DHT22;27262;-35.248;149.138;2023-07-29T12:39:50;18.00;64.50
41533;DHT22;27262;-35.248;149.138;2023-07-29T12:42:21;17.90;64.40
41533;DHT22;27262;-35.248;149.138;2023-07-29T12:44:51;17.90;64.50
41533;DHT22;27262;-35.248;149.138;2023-07-29T12:47:21;17.90;64.40
41533;DHT22;27262;-35.248;149.138;2023-07-29T12:49:52;17.90;64.50
41533;DHT22;27262;-35.248;149.138;2023-07-29T12:52:22;17.90;64.50
41533;DHT22;27262;-35.248;149.138;2023-07-29T12:54:52;17.90;64.50
41533;DHT22;27262;-35.248;149.138;2023-07-29T12:57:23;17.90;64.50
41533;DHT22;27262;-35.248;149.138;2023-07-29T12:59:53;17.90;64.50
41533;DHT22;27262;-35.248;149.138;2023-07-29T13:02:24;17.80;64.40
41533;DHT22;27262;-35.248;149.138;2023-07-29T13:04:54;17.80;64.40
41533;DHT22;27262;-35.248;149.138;2023-07-29T13:07:25;17.80;64.40
41533;DHT22;27262;-35.248;149.138;2023-07-29T13:09:55;17.80;64.40
41533;DHT22;27262;-35.248;149.138;2023-07-29T13:12:25;17.80;64.50
41533;DHT22;27262;-35.248;149.138;2023-07-29T13:14:56;17.80;64.50
41533;DHT22;27262;-35.248;149.138;2023-07-29T13:17:26;17.80;64.60
41533;DHT22;27262;-35.248;149.138;2023-07-29T13:19:56;17.80;64.60
41533;DHT22;27262;-35.248;149.138;2023-07-29T13:22:27;17.80;64.50
41533;DHT22;27262;-35.248;149.138;2023-07-29T13:24:57;17.80;64.60
41533;DHT22;27262;-35.248;149.138;2023-07-29T13:27:28;17.70;64.40
41533;DHT22;27262;-35.248;149.138;2023-07-29T13:29:58;17.70;64.50
41533;DHT22;27262;-35.248;149.138;2023-07-29T13:32:29;17.70;64.50
41533;DHT22;27262;-35.248;149.138;2023-07-29T13:35:00;17.70;64.60
41533;DHT22;27262;-35.248;149.138;2023-07-29T13:37:30;17.70;64.60
41533;DHT22;27262;-35.248;149.138;2023-07-29T13:40:00;17.70;64.60
41533;DHT22;27262;-35.248;149.138;2023-07-29T13:42:31;17.70;64.60
41533;DHT22;27262;-35.248;149.138;2023-07-29T13:45:02;17.60;64.50
41533;DHT22;27262;-35.248;149.138;2023-07-29T13:47:33;17.60;64.60
41533;DHT22;27262;-35.248;149.138;2023-07-29T13:50:04;17.60;64.60
41533;DHT22;27262;-35.248;149.138;2023-07-29T13:52:37;17.60;64.60
41533;DHT22;27262;-35.248;149.138;2023-07-29T13:55:08;17.60;64.60
41533;DHT22;27262;-35.248;149.138;2023-07-29T13:57:39;17.60;64.60
41533;DHT22;27262;-35.248;149.138;2023-07-29T14:00:10;17.60;64.60
41533;DHT22;27262;-35.248;149.138;2023-07-29T14:02:42;17.60;64.70
41533;DHT22;27262;-35.248;149.138;2023-07-29T14:05:13;17.60;64.70
41533;DHT22;27262;-35.248;149.138;2023-07-29T14:07:44;17.50;64.60
41533;DHT22;27262;-35.248;149.138;2023-07-29T14:10:15;17.50;64.60
41533;DHT22;27262;-35.248;149.138;2023-07-29T14:12:45;17.50;64.70
41533;DHT22;27262;-35.248;149.138;2023-07-29T14:15:15;17.50;64.70
41533;DHT22;27262;-35.248;149.138;2023-07-29T14:17:46;17.50;64.70
41533;DHT22;27262;-35.248;149.138;2023-07-29T14:20:17;17.50;64.70
41533;DHT22;27262;-35.248;149.138;2023-07-29T14:22:49;17.50;64.70
41533;DHT22;27262;-35.248;149.138;2023-07-29T14:25:19;17.50;64.70
41533;DHT22;27262;-35.248;149.138;2023-07-29T14:27:50;17.50;64.70
41533;DHT22;27262;-35.248;149.138;2023-07-29T14:30:20;17.40;64.70
41533;DHT22;27262;-35.248;149.138;2023-07-29T14:32:51;17.40;64.70
41533;DHT22;27262;-35.248;149.138;2023-07-29T14:35:21;17.40;64.70
41533;DHT22;27262;-35.248;149.138;2023-07-29T14:37:51;17.40;64.70
41533;DHT22;27262;-35.248;149.138;2023-07-29T14:40:22;17.40;64.70
41533;DHT22;27262;-35.248;149.138;2023-07-29T14:42:52;17.40;64.70
41533;DHT22;27262;-35.248;149.138;2023-07-29T14:45:22;17.40;64.70
41533;DHT22;27262;-35.248;149.138;2023-07-29T14:47:53;17.40;64.70
41533;DHT22;27262;-35.248;149.138;2023-07-29T14:50:23;17.40;64.80
41533;DHT22;27262;-35.248;149.138;2023-07-29T14:52:54;17.30;64.70
41533;DHT22;27262;-35.248;149.138;2023-07-29T14:55:24;17.40;64.80
41533;DHT22;27262;-35.248;149.138;2023-07-29T14:57:54;17.30;64.80
41533;DHT22;27262;-35.248;149.138;2023-07-29T15:00:25;17.30;64.80
41533;DHT22;27262;-35.248;149.138;2023-07-29T15:02:55;17.30;64.80
41533;DHT22;27262;-35.248;149.138;2023-07-29T15:05:25;17.30;64.90
41533;DHT22;27262;-35.248;149.138;2023-07-29T15:07:56;17.30;64.90
41533;DHT22;27262;-35.248;149.138;2023-07-29T15:10:27;17.30;65.00
41533;DHT22;27262;-35.248;149.138;2023-07-29T15:12:57;17.30;65.00
41533;DHT22;27262;-35.248;149.138;2023-07-29T15:15:27;17.20;64.80
41533;DHT22;27262;-35.248;149.138;2023-07-29T15:17:58;17.20;64.80
41533;DHT22;27262;-35.248;149.138;2023-07-29T15:20:28;17.20;64.70
41533;DHT22;27262;-35.248;149.138;2023-07-29T15:22:58;17.20;64.60
41533;DHT22;27262;-35.248;149.138;2023-07-29T15:25:29;17.20;64.50
41533;DHT22;27262;-35.248;149.138;2023-07-29T15:27:59;17.20;64.50
41533;DHT22;27262;-35.248;149.138;2023-07-29T15:30:30;17.10;64.40